Time;durP1;ratioP1;P1;durP2;ratioP2;P2;SDS_P1;SDS_P2;PMS_P1;PMS_P2;Temp;Humidity;BMP_temperature;BMP_pressure;BME280_temperature;BME280_humidity;BME280_pressure;Samples;Min_cycle;Max_cycle;Signal;HPM_P1;HPM_P2
2023/05/15 00:01:06;;;;;;;6.30;5.10;;;;;;;;;;5089848;28;20020;-63
2023/05/15 00:03:32;;;;;;;7.78;4.70;;;;;;;;;;5091169;28;20401;-63
2023/05/15 00:05:57;;;;;;;7.55;5.43;;;;;;;;;;5094847;28;20104;-63
2023/05/15 00:08:23;;;;;;;6.53;5.50;;;;;;;;;;5094892;28;20089;-63
2023/05/15 00:10:48;;;;;;;9.82;5.55;;;;;;;;;;5092903;28;20368;-63
2023/05/15 00:13:17;;;;;;;7.47;4.80;;;;;;;;;;5093679;28;20031;-63
2023/05/15 00:15:43;;;;;;;5.65;5.05;;;;;;;;;;5093399;28;20031;-63
2023/05/15 00:18:08;;;;;;;7.28;5.05;;;;;;;;;;5094304;28;20028;-63
2023/05/15 00:20:34;;;;;;;8.18;4.78;;;;;;;;;;5095340;28;20118;-63
2023/05/15 00:22:59;;;;;;;7.38;5.13;;;;;;;;;;5095679;28;20051;-63
2023/05/15 00:25:25;;;;;;;6.85;5.30;;;;;;;;;;5094357;28;20028;-63
2023/05/15 00:27:51;;;;;;;7.07;5.10;;;;;;;;;;5095539;28;20056;-64
2023/05/15 00:30:16;;;;;;;7.38;5.22;;;;;;;;;;5095414;28;20121;-63
2023/05/15 00:32:42;;;;;;;5.18;4.68;;;;;;;;;;5095682;28;20028;-64
2023/05/15 00:35:07;;;;;;;7.60;5.03;;;;;;;;;;5095578;28;20032;-63
2023/05/15 00:37:33;;;;;;;6.30;5.05;;;;;;;;;;5095619;28;20028;-62
2023/05/15 00:39:59;;;;;;;7.35;5.35;;;;;;;;;;5094958;28;20036;-64
2023/05/15 00:42:25;;;;;;;7.15;4.65;;;;;;;;;;5094598;28;20040;-63
2023/05/15 00:44:52;;;;;;;8.13;4.93;;;;;;;;;;5095449;28;20048;-63
2023/05/15 00:47:19;;;;;;;6.05;4.60;;;;;;;;;;5095055;28;20087;-63
2023/05/15 00:49:48;;;;;;;6.78;4.95;;;;;;;;;;5095120;28;20069;-63
2023/05/15 00:52:14;;;;;;;8.55;5.35;;;;;;;;;;5095062;28;20024;-62
2023/05/15 00:54:39;;;;;;;5.65;4.70;;;;;;;;;;5094928;28;20036;-63
2023/05/15 00:57:07;;;;;;;7.25;5.07;;;;;;;;;;5094994;28;20097;-63
2023/05/15 00:59:33;;;;;;;7.20;4.50;;;;;;;;;;5094966;28;20024;-63
2023/05/15 01:01:59;;;;;;;6.13;4.47;;;;;;;;;;5094796;28;20032;-63
2023/05/15 01:04:25;;;;;;;6.72;4.65;;;;;;;;;;5095065;28;20160;-64
2023/05/15 01:06:52;;;;;;;5.72;4.75;;;;;;;;;;5094695;28;20020;-64
2023/05/15 01:09:19;;;;;;;7.47;4.95;;;;;;;;;;5094687;28;20043;-63
2023/05/15 01:11:45;;;;;;;8.57;4.78;;;;;;;;;;5094677;28;20032;-64
2023/05/15 01:14:11;;;;;;;6.30;4.88;;;;;;;;;;5094697;28;20470;-63
2023/05/15 01:16:37;;;;;;;5.18;4.45;;;;;;;;;;5093408;28;20024;-63
2023/05/15 01:19:04;;;;;;;6.15;4.60;;;;;;;;;;5094585;28;20028;-63
2023/05/15 01:21:35;;;;;;;5.95;4.80;;;;;;;;;;5094436;28;20032;-62
2023/05/15 01:24:25;;;;;;;5.50;4.90;;;;;;;;;;5094438;28;20028;-63
2023/05/15 01:27:12;;;;;;;5.13;4.63;;;;;;;;;;5094526;28;20039;-64
2023/05/15 01:29:58;;;;;;;5.70;4.60;;;;;;;;;;5094611;28;20032;-64
2023/05/15 01:32:45;;;;;;;6.60;4.80;;;;;;;;;;5094388;28;20475;-63
2023/05/15 01:35:49;;;;;;;5.72;4.85;;;;;;;;;;5094511;28;20023;-64
2023/05/15 01:38:37;;;;;;;5.57;4.53;;;;;;;;;;5093712;28;20036;-63
2023/05/15 01:41:28;;;;;;;5.55;4.70;;;;;;;;;;5093981;28;20028;-63
2023/05/15 01:44:21;;;;;;;5.22;4.38;;;;;;;;;;5094356;28;20115;-63
2023/05/15 01:46:50;;;;;;;6.78;4.78;;;;;;;;;;5094362;28;20036;-64
2023/05/15 01:49:19;;;;;;;6.07;4.53;;;;;;;;;;5093947;28;20016;-64
2023/05/15 01:51:47;;;;;;;6.38;4.90;;;;;;;;;;5094223;28;20436;-64
2023/05/15 01:54:15;;;;;;;5.88;4.80;;;;;;;;;;5093863;28;20024;-64
2023/05/15 01:56:44;;;;;;;5.57;4.50;;;;;;;;;;5093919;28;20024;-63
2023/05/15 01:59:11;;;;;;;6.80;4.90;;;;;;;;;;5093753;28;20016;-63
2023/05/15 02:01:38;;;;;;;5.85;4.68;;;;;;;;;;5093723;28;20024;-63
2023/05/15 02:04:04;;;;;;;6.00;4.65;;;;;;;;;;5094003;28;20024;-63
2023/05/15 02:06:30;;;;;;;5.60;4.53;;;;;;;;;;5093637;28;20024;-64
2023/05/15 02:08:57;;;;;;;4.93;4.43;;;;;;;;;;5093589;28;20511;-63
2023/05/15 02:11:25;;;;;;;6.07;4.85;;;;;;;;;;5093868;28;20034;-63
2023/05/15 02:13:53;;;;;;;7.18;5.15;;;;;;;;;;5092144;28;20028;-64
2023/05/15 02:16:19;;;;;;;6.43;4.80;;;;;;;;;;5093675;28;20035;-62
2023/05/15 02:18:45;;;;;;;5.82;4.65;;;;;;;;;;5093308;28;20020;-63
2023/05/15 02:21:11;;;;;;;5.03;4.53;;;;;;;;;;5093529;28;20088;-64
2023/05/15 02:23:38;;;;;;;7.40;4.45;;;;;;;;;;5093265;28;20472;-63
2023/05/15 02:26:29;;;;;;;4.93;4.30;;;;;;;;;;5093169;28;20028;-63
2023/05/15 02:29:32;;;;;;;5.25;4.75;;;;;;;;;;5093538;28;20061;-63
2023/05/15 02:32:18;;;;;;;5.88;4.35;;;;;;;;;;5093417;28;20024;-63
2023/05/15 02:35:02;;;;;;;4.72;4.30;;;;;;;;;;5093112;28;20076;-63
2023/05/15 02:37:33;;;;;;;4.90;4.47;;;;;;;;;;5093007;28;20071;-63
2023/05/15 02:40:00;;;;;;;6.03;4.57;;;;;;;;;;5092972;28;20035;-63
2023/05/15 02:42:28;;;;;;;5.65;4.45;;;;;;;;;;5092727;28;20055;-63
2023/05/15 02:44:54;;;;;;;6.00;4.78;;;;;;;;;;5093056;28;20020;-64
2023/05/15 02:47:22;;;;;;;4.95;4.43;;;;;;;;;;5092898;28;20065;-63
2023/05/15 02:49:48;;;;;;;5.30;4.47;;;;;;;;;;5092805;28;20023;-64
2023/05/15 02:52:14;;;;;;;5.13;4.13;;;;;;;;;;5093107;28;20099;-63
2023/05/15 02:54:40;;;;;;;7.05;4.13;;;;;;;;;;5093424;28;20048;-63
2023/05/15 02:57:07;;;;;;;5.47;4.40;;;;;;;;;;5092698;28;20036;-62
2023/05/15 02:59:33;;;;;;;5.25;4.28;;;;;;;;;;5092749;28;20459;-64
2023/05/15 03:01:58;;;;;;;5.00;4.50;;;;;;;;;;5092559;28;20585;-62
2023/05/15 03:04:24;;;;;;;4.53;4.13;;;;;;;;;;5092729;28;20032;-64
2023/05/15 03:06:49;;;;;;;6.03;4.45;;;;;;;;;;5092924;28;20028;-64
2023/05/15 03:09:15;;;;;;;5.00;4.47;;;;;;;;;;5092556;28;20521;-63
2023/05/15 03:11:41;;;;;;;6.00;4.32;;;;;;;;;;5092566;28;20073;-63
2023/05/15 03:14:06;;;;;;;4.75;4.22;;;;;;;;;;5092557;28;20070;-64
2023/05/15 03:16:32;;;;;;;6.22;4.47;;;;;;;;;;5092458;28;20034;-63
2023/05/15 03:18:58;;;;;;;5.30;4.80;;;;;;;;;;5092541;28;20059;-64
2023/05/15 03:21:23;;;;;;;5.20;4.60;;;;;;;;;;5092706;28;20107;-62
2023/05/15 03:23:49;;;;;;;8.43;4.47;;;;;;;;;;5092432;28;20032;-63
2023/05/15 03:26:14;;;;;;;5.05;4.50;;;;;;;;;;5092680;28;20471;-64
2023/05/15 03:28:40;;;;;;;5.88;4.38;;;;;;;;;;5092327;28;20495;-63
2023/05/15 03:31:07;;;;;;;5.00;4.30;;;;;;;;;;5092316;28;20051;-63
2023/05/15 03:33:33;;;;;;;4.43;4.03;;;;;;;;;;5092682;28;20098;-63
2023/05/15 03:35:59;;;;;;;5.68;4.32;;;;;;;;;;5092299;28;20472;-62
2023/05/15 03:38:25;;;;;;;5.18;4.22;;;;;;;;;;5093146;28;20035;-63
2023/05/15 03:40:51;;;;;;;4.55;4.15;;;;;;;;;;5096293;28;20020;-63
2023/05/15 03:43:16;;;;;;;6.95;4.40;;;;;;;;;;5096223;28;20082;-63
2023/05/15 03:45:42;;;;;;;4.55;4.15;;;;;;;;;;5096313;28;20515;-63
2023/05/15 03:48:07;;;;;;;5.13;4.35;;;;;;;;;;5096503;28;20032;-64
2023/05/15 03:50:33;;;;;;;4.82;4.20;;;;;;;;;;5096310;28;20027;-62
2023/05/15 03:52:58;;;;;;;5.38;4.32;;;;;;;;;;5096172;28;20028;-63
2023/05/15 03:55:24;;;;;;;4.90;4.38;;;;;;;;;;5096389;28;20016;-63
2023/05/15 03:57:49;;;;;;;5.78;3.95;;;;;;;;;;5096460;28;20441;-64
2023/05/15 04:00:15;;;;;;;4.20;3.80;;;;;;;;;;5095917;28;20024;-63
2023/05/15 04:02:41;;;;;;;6.63;4.30;;;;;;;;;;5096194;28;20016;-63
2023/05/15 04:05:07;;;;;;;4.70;4.20;;;;;;;;;;5095919;28;20024;-64
2023/05/15 04:07:34;;;;;;;5.20;4.22;;;;;;;;;;5095898;28;20024;-62
2023/05/15 04:10:00;;;;;;;4.38;3.97;;;;;;;;;;5095883;28;20110;-62
2023/05/15 04:12:31;;;;;;;4.22;3.83;;;;;;;;;;5095873;28;20042;-63
2023/05/15 04:15:20;;;;;;;6.18;4.18;;;;;;;;;;5096048;28;20114;-63
2023/05/15 04:17:47;;;;;;;5.68;4.28;;;;;;;;;;5095688;28;20031;-63
2023/05/15 04:20:15;;;;;;;4.30;3.72;;;;;;;;;;5095853;28;20043;-64
2023/05/15 04:22:41;;;;;;;4.68;4.18;;;;;;;;;;5095778;28;20058;-62
2023/05/15 04:25:08;;;;;;;4.82;4.15;;;;;;;;;;5095974;28;20039;-62
2023/05/15 04:27:35;;;;;;;4.55;4.10;;;;;;;;;;5095551;28;20495;-62
2023/05/15 04:30:02;;;;;;;4.32;3.92;;;;;;;;;;5095820;28;20032;-62
2023/05/15 04:32:29;;;;;;;4.72;4.22;;;;;;;;;;5095765;28;20103;-63
2023/05/15 04:34:55;;;;;;;4.30;3.90;;;;;;;;;;5095424;28;20028;-62
2023/05/15 04:37:20;;;;;;;5.05;4.03;;;;;;;;;;5095796;28;20024;-63
2023/05/15 04:39:46;;;;;;;5.22;3.88;;;;;;;;;;5095660;28;20024;-63
2023/05/15 04:42:11;;;;;;;5.90;4.30;;;;;;;;;;5094986;28;20059;-62
2023/05/15 04:44:37;;;;;;;5.05;4.47;;;;;;;;;;5095278;28;20035;-63
2023/05/15 04:47:03;;;;;;;4.65;4.18;;;;;;;;;;5095151;28;20039;-62
2023/05/15 04:49:28;;;;;;;4.63;4.20;;;;;;;;;;5094960;28;20023;-62
2023/05/15 04:51:54;;;;;;;4.25;3.90;;;;;;;;;;5095582;28;20034;-63
2023/05/15 04:54:20;;;;;;;5.10;4.03;;;;;;;;;;5095097;28;20024;-63
2023/05/15 04:56:45;;;;;;;4.78;4.07;;;;;;;;;;5095009;28;20077;-64
2023/05/15 04:59:12;;;;;;;4.32;3.92;;;;;;;;;;5095199;28;20023;-62
2023/05/15 05:01:37;;;;;;;4.60;4.20;;;;;;;;;;5095277;28;20435;-63
2023/05/15 05:04:03;;;;;;;5.57;4.32;;;;;;;;;;5094903;28;20054;-64
2023/05/15 05:06:29;;;;;;;5.60;4.00;;;;;;;;;;5095172;28;20035;-62
2023/05/15 05:08:54;;;;;;;4.85;4.25;;;;;;;;;;5095097;28;20417;-63
2023/05/15 05:11:20;;;;;;;4.40;4.00;;;;;;;;;;5095026;28;20031;-63
2023/05/15 05:13:46;;;;;;;4.60;4.20;;;;;;;;;;5094622;28;20056;-64
2023/05/15 05:16:11;;;;;;;4.50;4.10;;;;;;;;;;5094751;28;20024;-63
2023/05/15 05:18:37;;;;;;;5.15;4.13;;;;;;;;;;5094751;28;20039;-63
2023/05/15 05:21:03;;;;;;;5.35;4.05;;;;;;;;;;5094480;28;20058;-62
2023/05/15 05:23:29;;;;;;;6.40;4.30;;;;;;;;;;5094411;28;20024;-61
2023/05/15 05:25:55;;;;;;;4.32;3.88;;;;;;;;;;5094322;28;20475;-61
2023/05/15 05:28:22;;;;;;;4.38;3.85;;;;;;;;;;5094335;28;20032;-62
2023/05/15 05:30:48;;;;;;;4.85;4.00;;;;;;;;;;5094632;28;20032;-63
2023/05/15 05:33:14;;;;;;;4.60;4.20;;;;;;;;;;5094292;28;20051;-61
2023/05/15 05:35:40;;;;;;;4.70;4.18;;;;;;;;;;5094214;28;20020;-61
2023/05/15 05:38:05;;;;;;;4.15;3.85;;;;;;;;;;5094393;28;20032;-61
2023/05/15 05:40:31;;;;;;;4.60;4.20;;;;;;;;;;5094061;28;20043;-63
2023/05/15 05:43:01;;;;;;;4.80;4.38;;;;;;;;;;5093009;28;20070;-62
2023/05/15 05:45:27;;;;;;;4.57;4.10;;;;;;;;;;5093995;28;20059;-62
2023/05/15 05:47:54;;;;;;;4.10;3.70;;;;;;;;;;5093957;28;20032;-61
2023/05/15 05:50:20;;;;;;;4.03;3.72;;;;;;;;;;5093844;28;20476;-61
2023/05/15 05:52:45;;;;;;;4.18;3.67;;;;;;;;;;5094236;28;20036;-61
2023/05/15 05:55:11;;;;;;;4.20;3.80;;;;;;;;;;5094060;28;20480;-60
2023/05/15 05:57:37;;;;;;;4.53;4.10;;;;;;;;;;5094060;28;20349;-61
2023/05/15 06:00:05;;;;;;;4.30;3.85;;;;;;;;;;5093978;28;20047;-59
2023/05/15 06:02:31;;;;;;;6.03;4.55;;;;;;;;;;5093100;28;20080;-62
2023/05/15 06:04:57;;;;;;;4.43;4.03;;;;;;;;;;5092413;28;20119;-62
2023/05/15 06:07:22;;;;;;;4.20;3.83;;;;;;;;;;5092719;28;20024;-63
2023/05/15 06:09:48;;;;;;;4.35;3.95;;;;;;;;;;5093891;28;20077;-62
2023/05/15 06:12:13;;;;;;;4.35;3.78;;;;;;;;;;5093570;28;20533;-62
2023/05/15 06:14:39;;;;;;;4.32;3.72;;;;;;;;;;5093567;28;20031;-61
2023/05/15 06:17:05;;;;;;;4.65;3.88;;;;;;;;;;5093414;28;20032;-62
2023/05/15 06:19:33;;;;;;;5.10;4.32;;;;;;;;;;5093387;28;20031;-62
2023/05/15 06:21:58;;;;;;;4.32;3.92;;;;;;;;;;5093303;28;20084;-61
2023/05/15 06:24:24;;;;;;;5.53;3.85;;;;;;;;;;5093138;28;20016;-60
2023/05/15 06:26:49;;;;;;;4.20;3.80;;;;;;;;;;5093306;28;20077;-62
2023/05/15 06:29:16;;;;;;;4.13;3.75;;;;;;;;;;5093137;28;20081;-62
2023/05/15 06:31:41;;;;;;;4.15;3.75;;;;;;;;;;5093189;28;20042;-62
2023/05/15 06:34:07;;;;;;;4.35;3.72;;;;;;;;;;5093156;28;20024;-62
2023/05/15 06:36:32;;;;;;;4.43;4.03;;;;;;;;;;5093064;28;20020;-61
2023/05/15 06:38:58;;;;;;;4.20;3.85;;;;;;;;;;5074965;28;20035;-62
2023/05/15 06:41:24;;;;;;;4.20;3.80;;;;;;;;;;5092661;28;20165;-63
2023/05/15 06:43:49;;;;;;;4.13;3.72;;;;;;;;;;5092815;28;20050;-61
2023/05/15 06:46:17;;;;;;;4.07;3.78;;;;;;;;;;5092877;28;20063;-61
2023/05/15 06:48:43;;;;;;;5.47;4.22;;;;;;;;;;5092980;28;20028;-61
2023/05/15 06:51:09;;;;;;;4.45;3.80;;;;;;;;;;5092921;28;20024;-61
2023/05/15 06:53:35;;;;;;;5.63;3.88;;;;;;;;;;5093055;28;20024;-62
2023/05/15 06:56:01;;;;;;;4.18;3.78;;;;;;;;;;5092820;28;20016;-61
2023/05/15 06:58:26;;;;;;;4.03;3.40;;;;;;;;;;5092703;28;20055;-62
2023/05/15 07:00:52;;;;;;;4.18;3.63;;;;;;;;;;5092823;28;20036;-61
2023/05/15 07:03:17;;;;;;;3.65;3.35;;;;;;;;;;5092955;28;20024;-62
2023/05/15 07:05:44;;;;;;;4.15;3.50;;;;;;;;;;5092925;28;20620;-63
2023/05/15 07:08:09;;;;;;;4.32;3.92;;;;;;;;;;5091613;28;20046;-63
2023/05/15 07:10:35;;;;;;;4.07;3.67;;;;;;;;;;5092517;28;20028;-62
2023/05/15 07:13:01;;;;;;;5.00;3.85;;;;;;;;;;5092576;28;20102;-63
2023/05/15 07:15:26;;;;;;;4.32;3.78;;;;;;;;;;5092531;28;20024;-63
2023/05/15 07:17:52;;;;;;;4.22;3.83;;;;;;;;;;5092349;28;20020;-62
2023/05/15 07:20:17;;;;;;;3.92;3.63;;;;;;;;;;5092345;28;20032;-63
2023/05/15 07:22:43;;;;;;;4.22;3.72;;;;;;;;;;5092660;28;20111;-63
2023/05/15 07:25:09;;;;;;;3.97;3.67;;;;;;;;;;5092465;28;20502;-62
2023/05/15 07:27:34;;;;;;;3.80;3.50;;;;;;;;;;5092667;28;20028;-63
2023/05/15 07:30:02;;;;;;;4.10;3.70;;;;;;;;;;5092409;28;20034;-62
2023/05/15 07:32:29;;;;;;;3.95;3.60;;;;;;;;;;5092316;28;20028;-63
2023/05/15 07:34:54;;;;;;;3.70;3.40;;;;;;;;;;5092461;28;20488;-63
2023/05/15 07:37:20;;;;;;;3.90;3.50;;;;;;;;;;5092622;28;20108;-60
2023/05/15 07:39:46;;;;;;;4.00;3.67;;;;;;;;;;5092682;28;20024;-62
2023/05/15 07:42:11;;;;;;;4.47;3.72;;;;;;;;;;5092393;28;20500;-60
2023/05/15 07:44:37;;;;;;;5.28;3.67;;;;;;;;;;5092338;28;20081;-60
2023/05/15 07:47:02;;;;;;;5.30;3.80;;;;;;;;;;5090989;28;20073;-63
2023/05/15 07:49:28;;;;;;;4.43;3.78;;;;;;;;;;5092508;28;20156;-60
2023/05/15 07:51:53;;;;;;;3.67;3.38;;;;;;;;;;5092615;28;20107;-60
2023/05/15 07:54:19;;;;;;;3.83;3.40;;;;;;;;;;5092164;28;20035;-60
2023/05/15 07:56:45;;;;;;;3.80;3.50;;;;;;;;;;5092108;28;20047;-60
2023/05/15 07:59:10;;;;;;;4.32;3.72;;;;;;;;;;5092152;28;20020;-61
2023/05/15 08:01:36;;;;;;;3.88;3.58;;;;;;;;;;5092085;28;20035;-61
2023/05/15 08:04:04;;;;;;;5.10;3.70;;;;;;;;;;5092433;28;20034;-63
2023/05/15 08:06:31;;;;;;;4.45;4.05;;;;;;;;;;5092018;28;20024;-61
2023/05/15 08:08:57;;;;;;;3.58;3.28;;;;;;;;;;5092321;28;20024;-63
2023/05/15 08:11:22;;;;;;;3.90;3.40;;;;;;;;;;5092080;28;20433;-62
2023/05/15 08:13:48;;;;;;;4.07;3.60;;;;;;;;;;5092017;28;20089;-62
2023/05/15 08:16:13;;;;;;;4.35;3.80;;;;;;;;;;5092155;28;20052;-63
2023/05/15 08:18:39;;;;;;;4.45;3.63;;;;;;;;;;5091413;28;20039;-62
2023/05/15 08:21:05;;;;;;;4.10;3.70;;;;;;;;;;5085503;28;20495;-63
2023/05/15 08:23:30;;;;;;;4.72;3.60;;;;;;;;;;5088302;28;20522;-61
2023/05/15 08:25:56;;;;;;;4.07;3.67;;;;;;;;;;5093683;28;20028;-61
2023/05/15 08:28:21;;;;;;;3.88;3.45;;;;;;;;;;5094316;28;20519;-61
2023/05/15 08:30:47;;;;;;;4.60;3.47;;;;;;;;;;5093113;28;20016;-61
2023/05/15 08:33:13;;;;;;;3.50;3.20;;;;;;;;;;5094125;28;20024;-63
2023/05/15 08:35:38;;;;;;;3.50;3.22;;;;;;;;;;5094391;28;21531;-60
2023/05/15 08:38:04;;;;;;;3.83;3.53;;;;;;;;;;5094380;28;20491;-63
2023/05/15 08:40:29;;;;;;;3.92;3.28;;;;;;;;;;5093337;28;20495;-61
2023/05/15 08:43:09;;;;;;;4.28;3.40;;;;;;;;;;5092903;28;20063;-64
2023/05/15 08:45:35;;;;;;;4.70;3.45;;;;;;;;;;5075044;28;20047;-63
2023/05/15 08:48:09;;;;;;;3.85;3.30;;;;;;;;;;5075149;28;20389;-63
2023/05/15 08:50:38;;;;;;;3.67;3.38;;;;;;;;;;5087340;28;20089;-62
2023/05/15 08:53:04;;;;;;;3.90;3.60;;;;;;;;;;5087589;28;20032;-61
2023/05/15 08:55:29;;;;;;;3.47;3.17;;;;;;;;;;5094524;28;20088;-60
2023/05/15 08:57:55;;;;;;;3.47;3.17;;;;;;;;;;5095286;28;20031;-63
2023/05/15 09:00:21;;;;;;;3.75;3.40;;;;;;;;;;5095164;28;20467;-65
2023/05/15 09:02:47;;;;;;;3.78;3.47;;;;;;;;;;5095242;28;20020;-61
2023/05/15 09:05:13;;;;;;;4.00;3.70;;;;;;;;;;5094847;28;20352;-61
2023/05/15 09:07:40;;;;;;;3.70;3.40;;;;;;;;;;5091883;28;20043;-61
2023/05/15 09:10:07;;;;;;;5.38;3.42;;;;;;;;;;5074477;28;20158;-61
2023/05/15 09:12:35;;;;;;;4.53;3.95;;;;;;;;;;5074409;28;20388;-61
2023/05/15 09:15:28;;;;;;;3.80;3.42;;;;;;;;;;5074429;28;20020;-62
2023/05/15 09:17:55;;;;;;;3.58;3.28;;;;;;;;;;5073514;28;20040;-62
2023/05/15 09:20:32;;;;;;;3.95;3.60;;;;;;;;;;5074175;28;20162;-61
2023/05/15 09:22:59;;;;;;;3.80;3.50;;;;;;;;;;5074196;28;20085;-61
2023/05/15 09:25:39;;;;;;;4.57;3.55;;;;;;;;;;5074321;28;20507;-61
2023/05/15 09:28:10;;;;;;;3.53;3.23;;;;;;;;;;5074357;28;20032;-63
2023/05/15 09:30:41;;;;;;;4.13;3.33;;;;;;;;;;5074240;28;20040;-64
2023/05/15 09:33:08;;;;;;;4.20;3.22;;;;;;;;;;5074065;28;20029;-61
2023/05/15 09:35:38;;;;;;;3.85;3.35;;;;;;;;;;5073911;28;20066;-61
2023/05/15 09:38:09;;;;;;;3.60;3.30;;;;;;;;;;5073778;28;20384;-61
2023/05/15 09:40:34;;;;;;;3.60;3.30;;;;;;;;;;5074044;28;20475;-61
2023/05/15 09:43:00;;;;;;;3.40;3.10;;;;;;;;;;5075221;28;20040;-61
2023/05/15 09:45:28;;;;;;;3.53;3.20;;;;;;;;;;5084348;28;20036;-61
2023/05/15 09:48:03;;;;;;;3.60;3.30;;;;;;;;;;5093878;28;20464;-62
2023/05/15 09:50:37;;;;;;;3.80;3.50;;;;;;;;;;5090104;28;20110;-62
2023/05/15 09:53:03;;;;;;;4.30;3.58;;;;;;;;;;5092580;28;20206;-62
2023/05/15 09:55:35;;;;;;;4.00;3.60;;;;;;;;;;5094137;28;20432;-62
2023/05/15 09:58:10;;;;;;;3.70;3.40;;;;;;;;;;5086911;28;20031;-62
2023/05/15 10:00:38;;;;;;;3.78;3.35;;;;;;;;;;5092073;28;20185;-62
2023/05/15 10:03:06;;;;;;;3.42;3.13;;;;;;;;;;5092013;28;20063;-62
2023/05/15 10:05:32;;;;;;;3.92;3.28;;;;;;;;;;5092001;28;20032;-62
2023/05/15 10:07:58;;;;;;;5.28;3.67;;;;;;;;;;5090863;28;20040;-63
2023/05/15 10:10:25;;;;;;;5.28;3.47;;;;;;;;;;5091916;28;20505;-62
2023/05/15 10:12:52;;;;;;;3.85;3.45;;;;;;;;;;5092101;28;20035;-62
2023/05/15 10:15:20;;;;;;;3.72;3.42;;;;;;;;;;5091845;28;20063;-62
2023/05/15 10:17:48;;;;;;;5.00;3.53;;;;;;;;;;5092006;28;20056;-62
2023/05/15 10:20:16;;;;;;;3.80;3.40;;;;;;;;;;5090069;28;20031;-64
2023/05/15 10:22:45;;;;;;;3.85;3.15;;;;;;;;;;5091861;28;20043;-62
2023/05/15 10:25:39;;;;;;;3.53;3.22;;;;;;;;;;5091593;28;20028;-62
2023/05/15 10:28:08;;;;;;;4.10;3.00;;;;;;;;;;5091809;28;20032;-63
2023/05/15 10:30:35;;;;;;;3.47;3.17;;;;;;;;;;5091719;28;20038;-62
2023/05/15 10:33:03;;;;;;;3.45;3.15;;;;;;;;;;5091926;28;20382;-62
2023/05/15 10:35:29;;;;;;;3.50;3.20;;;;;;;;;;5091265;28;20032;-63
2023/05/15 10:37:56;;;;;;;3.53;3.22;;;;;;;;;;5090194;28;20036;-63
2023/05/15 10:40:22;;;;;;;3.50;3.20;;;;;;;;;;5091067;28;20027;-62
2023/05/15 10:42:48;;;;;;;3.70;3.30;;;;;;;;;;5091254;28;20072;-63
2023/05/15 10:45:14;;;;;;;3.63;3.22;;;;;;;;;;5091286;28;20813;-63
2023/05/15 10:47:42;;;;;;;4.10;3.28;;;;;;;;;;5089911;28;20027;-62
2023/05/15 10:50:08;;;;;;;3.45;3.15;;;;;;;;;;5091225;28;20028;-62
2023/05/15 10:52:38;;;;;;;3.28;3.08;;;;;;;;;;5076785;28;20568;-63
2023/05/15 10:55:08;;;;;;;5.82;3.30;;;;;;;;;;5069660;28;20039;-63
2023/05/15 10:57:34;;;;;;;3.78;3.20;;;;;;;;;;5069727;28;20487;-63
2023/05/15 11:00:01;;;;;;;3.42;3.13;;;;;;;;;;5070183;28;20089;-63
2023/05/15 11:02:30;;;;;;;3.65;3.08;;;;;;;;;;5070606;28;20055;-63
2023/05/15 11:04:57;;;;;;;3.25;2.95;;;;;;;;;;5070007;28;20079;-63
2023/05/15 11:07:24;;;;;;;5.50;3.00;;;;;;;;;;5069361;28;20036;-63
2023/05/15 11:09:52;;;;;;;3.88;3.42;;;;;;;;;;5070036;28;20506;-63
2023/05/15 11:12:17;;;;;;;3.00;2.80;;;;;;;;;;5070102;28;20036;-63
2023/05/15 11:15:03;;;;;;;3.95;3.33;;;;;;;;;;5070196;28;20055;-63
2023/05/15 11:17:32;;;;;;;3.50;3.17;;;;;;;;;;5070260;28;20033;-63
2023/05/15 11:20:00;;;;;;;3.92;3.58;;;;;;;;;;5070709;28;20048;-64
2023/05/15 11:22:28;;;;;;;3.30;3.00;;;;;;;;;;5070468;28;20381;-63
2023/05/15 11:25:12;;;;;;;4.13;3.30;;;;;;;;;;5070515;28;20047;-63
2023/05/15 11:27:45;;;;;;;3.80;3.00;;;;;;;;;;5071031;28;20098;-63
2023/05/15 11:30:21;;;;;;;3.15;2.85;;;;;;;;;;5070738;28;20025;-62
2023/05/15 11:32:46;;;;;;;3.40;3.10;;;;;;;;;;5069121;28;20024;-64
2023/05/15 11:35:17;;;;;;;3.22;2.97;;;;;;;;;;5070525;28;20089;-64
2023/05/15 11:37:45;;;;;;;3.45;3.17;;;;;;;;;;5069695;28;20033;-63
2023/05/15 11:40:57;;;;;;;3.30;3.08;;;;;;;;;;5070327;28;20025;-63
2023/05/15 11:43:23;;;;;;;4.18;2.90;;;;;;;;;;5061407;28;20544;-63
2023/05/15 11:46:07;;;;;;;3.38;3.08;;;;;;;;;;5070737;28;20036;-63
2023/05/15 11:48:33;;;;;;;3.50;3.20;;;;;;;;;;5070854;28;20384;-64
2023/05/15 11:51:04;;;;;;;3.38;2.90;;;;;;;;;;5070255;28;20036;-63
2023/05/15 11:53:30;;;;;;;3.67;3.00;;;;;;;;;;5070616;28;20033;-64
2023/05/15 11:55:56;;;;;;;3.70;3.40;;;;;;;;;;5070228;28;20025;-64
2023/05/15 11:58:23;;;;;;;3.30;3.00;;;;;;;;;;5070571;28;20025;-63
2023/05/15 12:00:51;;;;;;;3.50;3.20;;;;;;;;;;5073365;28;20162;-63
2023/05/15 12:03:26;;;;;;;3.40;3.10;;;;;;;;;;5074398;28;20028;-63
2023/05/15 12:05:53;;;;;;;4.13;3.28;;;;;;;;;;5074598;28;20728;-63
2023/05/15 12:08:22;;;;;;;3.65;3.25;;;;;;;;;;5074279;28;20494;-63
2023/05/15 12:10:48;;;;;;;3.65;3.17;;;;;;;;;;5074279;28;20464;-64
2023/05/15 12:13:16;;;;;;;3.92;2.97;;;;;;;;;;5073368;28;20233;-61
2023/05/15 12:15:43;;;;;;;3.33;3.03;;;;;;;;;;5074088;28;20479;-63
2023/05/15 12:18:09;;;;;;;3.92;3.47;;;;;;;;;;5073992;28;20392;-62
2023/05/15 12:20:36;;;;;;;3.75;3.10;;;;;;;;;;5073969;28;20025;-63
2023/05/15 12:23:03;;;;;;;3.60;3.30;;;;;;;;;;5073688;28;20102;-62
2023/05/15 12:25:30;;;;;;;3.33;3.03;;;;;;;;;;5073939;28;20025;-62
2023/05/15 12:27:57;;;;;;;3.22;2.97;;;;;;;;;;5073615;28;20334;-63
2023/05/15 12:30:23;;;;;;;3.35;3.08;;;;;;;;;;5073514;28;20495;-63
2023/05/15 12:32:49;;;;;;;3.20;2.90;;;;;;;;;;5073748;28;20115;-63
2023/05/15 12:35:15;;;;;;;3.50;3.20;;;;;;;;;;5073592;28;20032;-62
2023/05/15 12:37:41;;;;;;;5.45;3.45;;;;;;;;;;5073549;28;20099;-62
2023/05/15 12:40:10;;;;;;;3.50;3.20;;;;;;;;;;5073603;28;20059;-63
2023/05/15 12:42:43;;;;;;;3.70;3.10;;;;;;;;;;5073401;28;20052;-62
2023/05/15 12:45:17;;;;;;;4.60;3.00;;;;;;;;;;5073647;28;20395;-62
2023/05/15 12:47:44;;;;;;;4.68;2.75;;;;;;;;;;5073548;28;20024;-63
2023/05/15 12:50:20;;;;;;;3.05;2.85;;;;;;;;;;5073205;28;20115;-62
2023/05/15 12:52:54;;;;;;;4.90;3.30;;;;;;;;;;5073151;28;20455;-62
2023/05/15 12:55:24;;;;;;;3.60;2.72;;;;;;;;;;5074925;28;20028;-62
2023/05/15 12:57:51;;;;;;;3.30;2.95;;;;;;;;;;5093624;28;20031;-62
2023/05/15 13:00:17;;;;;;;3.75;3.10;;;;;;;;;;5090302;28;20468;-60
2023/05/15 13:02:47;;;;;;;3.45;3.00;;;;;;;;;;5087610;28;20024;-62
2023/05/15 13:05:13;;;;;;;3.47;3.17;;;;;;;;;;5092623;28;20035;-62
2023/05/15 13:07:42;;;;;;;6.78;3.10;;;;;;;;;;5093195;28;20028;-61
2023/05/15 13:10:09;;;;;;;4.53;3.00;;;;;;;;;;5093060;28;20056;-60
2023/05/15 13:12:41;;;;;;;5.55;3.55;;;;;;;;;;5093390;28;20273;-60
2023/05/15 13:15:07;;;;;;;3.42;3.00;;;;;;;;;;5093041;28;20032;-61
2023/05/15 13:17:38;;;;;;;4.43;3.10;;;;;;;;;;5093112;28;20108;-60
2023/05/15 13:20:06;;;;;;;3.40;3.10;;;;;;;;;;5092966;28;20024;-61
2023/05/15 13:22:32;;;;;;;3.95;2.80;;;;;;;;;;5092767;28;20025;-61
2023/05/15 13:24:57;;;;;;;5.68;3.20;;;;;;;;;;5091362;28;20031;-62
2023/05/15 13:27:23;;;;;;;7.82;3.08;;;;;;;;;;5092812;28;20036;-61
2023/05/15 13:29:48;;;;;;;5.95;3.40;;;;;;;;;;5092991;28;20043;-60
2023/05/15 13:32:14;;;;;;;7.47;3.20;;;;;;;;;;5092712;28;20472;-60
2023/05/15 13:34:39;;;;;;;6.13;3.03;;;;;;;;;;5092025;28;20066;-61
2023/05/15 13:37:05;;;;;;;7.68;3.40;;;;;;;;;;5092693;28;20024;-64
2023/05/15 13:39:31;;;;;;;5.13;2.70;;;;;;;;;;5092580;28;20032;-63
2023/05/15 13:41:57;;;;;;;4.07;2.65;;;;;;;;;;5092331;28;20048;-63
2023/05/15 13:44:22;;;;;;;2.40;2.20;;;;;;;;;;5092743;28;20028;-65
2023/05/15 13:46:48;;;;;;;2.40;2.00;;;;;;;;;;5092391;28;20488;-65
2023/05/15 13:49:13;;;;;;;6.10;2.03;;;;;;;;;;5092447;28;20039;-67
2023/05/15 13:51:39;;;;;;;15.63;2.15;;;;;;;;;;5090849;28;20043;-64
2023/05/15 13:54:05;;;;;;;7.13;4.07;;;;;;;;;;5091883;28;20028;-67
2023/05/15 13:56:30;;;;;;;1.88;1.70;;;;;;;;;;5091788;28;20073;-64
2023/05/15 13:58:56;;;;;;;1.90;1.80;;;;;;;;;;5091914;28;20016;-65
2023/05/15 14:01:21;;;;;;;4.40;2.00;;;;;;;;;;5091957;28;20063;-67
2023/05/15 14:03:47;;;;;;;3.67;1.65;;;;;;;;;;5090811;28;20105;-65
2023/05/15 14:06:12;;;;;;;2.65;2.42;;;;;;;;;;5092338;28;20035;-64
2023/05/15 14:08:38;;;;;;;2.22;2.03;;;;;;;;;;5079378;28;20029;-64
2023/05/15 14:11:03;;;;;;;2.38;1.92;;;;;;;;;;5071509;28;20426;-64
2023/05/15 14:13:31;;;;;;;2.38;2.17;;;;;;;;;;5071850;28;20127;-63
2023/05/15 14:15:57;;;;;;;2.33;2.03;;;;;;;;;;5071803;28;20427;-61
2023/05/15 14:18:24;;;;;;;2.22;2.03;;;;;;;;;;5071924;28;20086;-61
2023/05/15 14:20:50;;;;;;;3.10;1.70;;;;;;;;;;5076189;28;20032;-64
2023/05/15 14:23:15;;;;;;;2.20;1.88;;;;;;;;;;5090909;28;20024;-62
2023/05/15 14:25:41;;;;;;;1.90;1.80;;;;;;;;;;5091467;28;20032;-65
2023/05/15 14:28:06;;;;;;;1.90;1.70;;;;;;;;;;5091606;28;20077;-64
2023/05/15 14:30:32;;;;;;;2.58;1.55;;;;;;;;;;5091238;28;20442;-64
2023/05/15 14:32:58;;;;;;;4.47;1.80;;;;;;;;;;5090051;28;20060;-65
2023/05/15 14:35:23;;;;;;;9.20;2.25;;;;;;;;;;5091681;28;20523;-64
2023/05/15 14:37:49;;;;;;;2.97;1.70;;;;;;;;;;5091167;28;20399;-63
2023/05/15 14:40:14;;;;;;;2.42;1.50;;;;;;;;;;5090747;28;20463;-65
2023/05/15 14:42:40;;;;;;;5.60;1.60;;;;;;;;;;5091096;28;20396;-63
2023/05/15 14:45:06;;;;;;;5.40;1.45;;;;;;;;;;5091178;28;20476;-63
2023/05/15 14:47:32;;;;;;;1.90;1.80;;;;;;;;;;5091470;28;20107;-62